Time;durP1;ratioP1;P1;durP2;ratioP2;P2;SDS_P1;SDS_P2;PMS_P1;PMS_P2;Temp;Humidity;BMP_temperature;BMP_pressure;BME280_temperature;BME280_humidity;BME280_pressure;Samples;Min_cycle;Max_cycle;Signal;HPM_P1;HPM_P2
2022/06/22 00:01:55;;;;;;;14.40;8.25;;;;;;;15.60;100.00;164644.16;5015837;28;20045;-61
2022/06/22 00:04:35;;;;;;;12.73;8.88;;;;;;;15.60;100.00;164644.16;4994948;28;20026;-61
2022/06/22 00:07:11;;;;;;;16.75;8.65;;;;;;;15.57;100.00;164636.03;5005129;28;20046;-61
2022/06/22 00:09:39;;;;;;;13.02;7.53;;;;;;;15.51;100.00;164621.13;4999945;28;20033;-61
2022/06/22 00:12:07;;;;;;;13.55;7.13;;;;;;;15.47;100.00;164611.66;4992066;28;20509;-61
2022/06/22 00:14:47;;;;;;;17.30;8.03;;;;;;;15.46;100.00;164607.59;5012863;28;20032;-61
2022/06/22 00:17:20;;;;;;;12.73;8.05;;;;;;;15.42;100.00;164598.13;5011504;28;20112;-62
2022/06/22 00:19:47;;;;;;;16.52;10.02;;;;;;;15.35;100.00;164579.16;5013298;28;20022;-61
2022/06/22 00:22:19;;;;;;;10.10;8.57;;;;;;;15.33;100.00;164573.75;5008277;28;20057;-61
2022/06/22 00:24:44;;;;;;;12.85;9.25;;;;;;;15.29;100.00;164562.94;5008363;28;20029;-61
2022/06/22 00:27:37;;;;;;;11.40;7.15;;;;;;;15.24;100.00;164550.75;4993738;28;20061;-61
2022/06/22 00:30:23;;;;;;;14.60;8.93;;;;;;;15.16;100.00;164530.41;5001975;28;20121;-61
2022/06/22 00:33:02;;;;;;;10.32;8.15;;;;;;;15.09;100.00;164511.47;5003210;28;20022;-61
2022/06/22 00:35:50;;;;;;;14.32;7.85;;;;;;;14.98;100.00;164481.72;4991551;28;20042;-61
2022/06/22 00:38:18;;;;;;;14.35;9.43;;;;;;;14.88;100.00;164457.34;4993452;28;20390;-61
2022/06/22 00:40:46;;;;;;;12.65;10.30;;;;;;;14.81;100.00;164438.41;4992615;28;20049;-61
2022/06/22 00:43:15;;;;;;;15.30;10.85;;;;;;;14.73;100.00;164416.75;5007877;28;20436;-62
2022/06/22 00:45:42;;;;;;;12.35;8.45;;;;;;;14.70;100.00;164408.66;5010978;28;20042;-61
2022/06/22 00:48:33;;;;;;;13.90;9.07;;;;;;;14.64;100.00;164392.31;5012286;28;20032;-61
2022/06/22 00:51:06;;;;;;;11.88;8.43;;;;;;;14.59;100.00;164381.53;5010203;28;20149;-61
2022/06/22 00:53:38;;;;;;;11.45;7.93;;;;;;;14.52;100.00;164362.59;5011728;28;20057;-61
2022/06/22 00:56:22;;;;;;;20.65;9.70;;;;;;;14.43;100.00;164338.22;5009974;28;20045;-62
2022/06/22 00:58:56;;;;;;;9.82;8.93;;;;;;;14.33;100.00;164311.19;4996809;28;20081;-61
2022/06/22 01:01:37;;;;;;;13.50;8.23;;;;;;;14.29;100.00;164301.72;5007622;28;20728;-61
2022/06/22 01:04:10;;;;;;;16.60;9.82;;;;;;;14.23;100.00;164286.81;4992356;28;20716;-61
2022/06/22 01:06:44;;;;;;;10.73;9.73;;;;;;;14.20;100.00;164278.69;4990935;28;20121;-61
2022/06/22 01:09:18;;;;;;;11.95;10.60;;;;;;;14.18;100.00;164273.31;4992134;28;20038;-61
2022/06/22 01:12:16;;;;;;;23.55;13.35;;;;;;;14.15;100.00;164265.19;4993743;28;20041;-61
2022/06/22 01:14:53;;;;;;;19.33;10.25;;;;;;;14.15;100.00;164265.19;5007984;28;20030;-59
2022/06/22 01:17:32;;;;;;;14.15;9.65;;;;;;;14.09;100.00;164248.94;5009360;28;20037;-63
2022/06/22 01:20:10;;;;;;;;;;;;;;;14.05;100.00;164238.09;4991027;28;20034;-61
2022/06/22 01:22:45;;;;;;;;;;;;;;;14.04;100.00;164235.38;5001256;28;20364;-60
2022/06/22 01:25:35;;;;;;;16.92;13.63;;;;;;;14.03;100.00;164232.72;5010077;28;19929;-60
2022/06/22 01:28:00;;;;;;;12.57;10.32;;;;;;;13.99;100.00;164221.88;5011162;28;20477;-60
2022/06/22 01:30:43;;;;;;;15.98;11.75;;;;;;;13.93;100.00;164208.38;5010108;28;20056;-60
2022/06/22 01:33:21;;;;;;;21.52;10.60;;;;;;;13.89;100.00;164197.53;5006919;28;20029;-60
2022/06/22 01:35:53;;;;;;;14.95;11.02;;;;;;;13.87;100.00;164192.16;5009885;28;20132;-60
2022/06/22 01:38:29;;;;;;;22.13;12.55;;;;;;;13.83;100.00;164181.31;5011826;28;20469;-59
2022/06/22 01:41:11;;;;;;;19.77;13.10;;;;;;;13.80;100.00;164173.22;5009306;28;20168;-59
2022/06/22 01:43:45;;;;;;;13.40;12.13;;;;;;;13.77;100.00;164166.47;4990820;28;20096;-60
2022/06/22 01:46:24;;;;;;;13.27;10.48;;;;;;;13.75;100.00;164161.03;4998153;28;20080;-60
2022/06/22 01:49:12;;;;;;;17.88;11.27;;;;;;;13.71;100.00;164150.19;5004234;28;20087;-60
2022/06/22 01:51:45;;;;;;;23.50;12.52;;;;;;;13.68;100.00;164142.09;4993883;28;20425;-60
2022/06/22 01:54:29;;;;;;;22.73;11.50;;;;;;;13.64;100.00;164132.63;4991645;28;20022;-60
2022/06/22 01:57:12;;;;;;;17.65;12.27;;;;;;;13.57;100.00;164113.72;4990877;28;20046;-60
2022/06/22 02:00:04;;;;;;;22.23;14.95;;;;;;;13.54;100.00;164104.25;5002903;28;20101;-60
2022/06/22 02:02:38;;;;;;;20.58;13.43;;;;;;;13.51;100.00;164097.50;4993929;28;20533;-60
2022/06/22 02:05:19;;;;;;;20.00;16.45;;;;;;;13.48;100.00;164089.34;4993460;28;20128;-60
2022/06/22 02:08:10;;;;;;;18.10;13.13;;;;;;;13.44;100.00;164078.56;4998666;28;20408;-60
2022/06/22 02:11:01;;;;;;;20.85;12.35;;;;;;;13.41;100.00;164071.75;4988303;28;20449;-60
2022/06/22 02:13:34;;;;;;;16.73;11.88;;;;;;;13.38;100.00;164062.25;5010919;28;20034;-60
2022/06/22 02:16:23;;;;;;;20.27;13.60;;;;;;;13.32;100.00;164047.41;4994433;28;20055;-60
2022/06/22 02:18:51;;;;;;;14.38;11.90;;;;;;;13.21;100.00;164019.03;4991660;28;20489;-60
2022/06/22 02:21:23;;;;;;;19.27;11.85;;;;;;;13.11;100.00;163991.97;4995470;28;20085;-60
2022/06/22 02:23:59;;;;;;;20.30;12.23;;;;;;;13.05;100.00;163975.75;5006969;28;20030;-60
2022/06/22 02:26:32;;;;;;;15.55;12.50;;;;;;;13.00;100.00;163964.91;5008778;28;20054;-60
2022/06/22 02:28:58;;;;;;;15.35;12.75;;;;;;;12.97;100.00;163955.44;5010707;28;20051;-60
2022/06/22 02:31:23;;;;;;;13.65;12.35;;;;;;;12.93;100.00;163944.66;5003629;28;20045;-60
2022/06/22 02:33:53;;;;;;;20.40;13.23;;;;;;;12.88;100.00;163932.47;4991224;28;20030;-60
2022/06/22 02:36:20;;;;;;;15.95;13.23;;;;;;;12.87;100.00;163929.78;4989917;28;20043;-60
2022/06/22 02:38:47;;;;;;;27.42;14.50;;;;;;;12.84;100.00;163921.69;4994680;28;20041;-60
2022/06/22 02:46:45;;;;;;;25.00;15.00;;;;;;;12.72;100.00;163889.22;5009557;28;20041;-60
2022/06/22 02:49:29;;;;;;;20.20;14.60;;;;;;;12.69;100.00;163883.84;5009548;28;20065;-60
2022/06/22 02:51:55;;;;;;;19.58;16.55;;;;;;;12.70;100.00;163886.50;4998550;28;20057;-59
2022/06/22 02:54:39;;;;;;;23.52;16.90;;;;;;;12.69;100.00;163883.84;4992431;28;20033;-59
2022/06/22 02:57:21;;;;;;;21.23;16.67;;;;;;;12.65;100.00;163871.69;4993317;28;20046;-59
2022/06/22 02:59:48;;;;;;;27.17;17.00;;;;;;;12.62;100.00;163864.88;4999103;28;20014;-59
2022/06/22 03:02:14;;;;;;;19.80;16.40;;;;;;;12.61;100.00;163862.22;5007272;28;20032;-59
2022/06/22 03:04:42;;;;;;;18.65;15.60;;;;;;;12.62;100.00;163863.53;5014448;28;20046;-59
2022/06/22 03:07:08;;;;;;;31.00;19.15;;;;;;;12.59;100.00;163856.78;5012931;28;20042;-59
2022/06/22 03:09:34;;;;;;;17.40;15.80;;;;;;;12.56;100.00;163847.34;5002066;28;20027;-60
2022/06/22 03:12:01;;;;;;;28.70;19.25;;;;;;;12.55;100.00;163845.97;5001958;28;20049;-67
2022/06/22 03:14:33;;;;;;;27.30;17.83;;;;;;;12.54;100.00;163844.63;5011480;28;20030;-62
2022/06/22 03:17:04;;;;;;;26.80;18.73;;;;;;;12.52;100.00;163837.88;5001480;28;20045;-62
2022/06/22 03:19:40;;;;;;;17.75;15.90;;;;;;;12.52;100.00;163837.88;5005104;28;20057;-62
2022/06/22 03:22:06;;;;;;;19.48;14.93;;;;;;;12.51;100.00;163835.16;5004317;28;20103;-62
2022/06/22 03:24:45;;;;;;;17.75;15.13;;;;;;;12.47;100.00;163824.38;5005609;28;20034;-62
2022/06/22 03:27:16;;;;;;;16.58;14.20;;;;;;;12.43;100.00;163814.91;5011666;28;20060;-62
2022/06/22 03:29:49;;;;;;;19.05;16.35;;;;;;;12.44;100.00;163816.25;5004334;28;20477;-62
2022/06/22 03:32:31;;;;;;;16.70;14.85;;;;;;;12.48;100.00;163827.03;4994820;28;20441;-59
2022/06/22 03:35:00;;;;;;;18.08;15.45;;;;;;;12.46;100.00;163821.66;5008107;28;20030;-59
2022/06/22 03:37:47;;;;;;;21.25;14.02;;;;;;;12.41;100.00;163809.50;5012312;28;20493;-59
2022/06/22 03:40:24;;;;;;;21.55;14.38;;;;;;;12.37;100.00;163800.03;5005297;28;20049;-59
2022/06/22 03:42:55;;;;;;;20.10;15.07;;;;;;;12.40;100.00;163805.47;4993418;28;20049;-59
2022/06/22 03:45:26;;;;;;;17.10;13.27;;;;;;;12.37;100.00;163800.03;4993593;28;20045;-59
2022/06/22 03:47:58;;;;;;;15.93;13.55;;;;;;;12.37;100.00;163800.03;4997039;28;20065;-60
2022/06/22 03:50:41;;;;;;;17.38;12.63;;;;;;;12.35;100.00;163793.28;4996721;28;20477;-60
2022/06/22 03:53:25;;;;;;;17.00;14.07;;;;;;;12.34;100.00;163791.91;5004271;28;20033;-59
2022/06/22 03:55:57;;;;;;;16.48;14.75;;;;;;;12.31;100.00;163783.84;5003061;28;20080;-59
2022/06/22 03:58:24;;;;;;;16.85;12.63;;;;;;;12.41;100.00;163808.13;4993998;28;20410;-59
2022/06/22 04:00:50;;;;;;;15.75;11.38;;;;;;;12.39;100.00;163804.09;4992270;28;20070;-59
2022/06/22 04:03:17;;;;;;;15.40;11.15;;;;;;;12.37;100.00;163800.03;4993389;28;20026;-59
2022/06/22 04:05:46;;;;;;;16.23;14.20;;;;;;;12.36;100.00;163797.34;4991432;28;20556;-59
2022/06/22 04:08:26;;;;;;;14.15;12.73;;;;;;;12.31;100.00;163783.84;4993317;28;20486;-59
2022/06/22 04:11:01;;;;;;;16.88;12.55;;;;;;;12.27;100.00;163771.66;4991601;28;20081;-60
2022/06/22 04:13:37;;;;;;;19.65;14.82;;;;;;;12.22;100.00;163760.84;4993854;28;20034;-58
2022/06/22 04:16:09;;;;;;;21.20;13.10;;;;;;;12.22;100.00;163759.50;4991835;28;20038;-62
2022/06/22 04:18:41;;;;;;;19.30;13.20;;;;;;;12.16;100.00;163744.63;4993113;28;20026;-61
2022/06/22 04:21:18;;;;;;;12.77;11.50;;;;;;;12.15;100.00;163740.59;4991735;28;20125;-61
2022/06/22 04:24:11;;;;;;;15.13;12.38;;;;;;;12.15;100.00;163740.59;4993190;28;20033;-61
2022/06/22 04:27:06;;;;;;;13.68;11.80;;;;;;;12.16;100.00;163743.31;4991383;28;20057;-61
2022/06/22 04:29:40;;;;;;;16.67;11.85;;;;;;;12.16;100.00;163743.31;4993100;28;20040;-61
2022/06/22 04:32:28;;;;;;;17.88;14.15;;;;;;;12.19;100.00;163751.38;4991313;28;20042;-61
2022/06/22 04:35:01;;;;;;;13.88;11.82;;;;;;;12.27;100.00;163773.00;4991141;28;20474;-61
2022/06/22 04:37:42;;;;;;;14.57;11.80;;;;;;;12.35;100.00;163794.63;4992876;28;20019;-61
2022/06/22 04:40:24;;;;;;;19.23;12.85;;;;;;;12.45;100.00;163818.97;4991307;28;20092;-61
2022/06/22 04:42:55;;;;;;;12.88;11.50;;;;;;;12.58;100.00;163854.09;4992899;28;20022;-61
2022/06/22 04:45:28;;;;;;;13.48;11.25;;;;;;;12.69;100.00;163883.84;4991908;28;20038;-61
2022/06/22 04:48:05;;;;;;;16.10;12.43;;;;;;;12.76;100.00;163901.38;4992249;28;20057;-61
2022/06/22 04:50:31;;;;;;;13.02;10.65;;;;;;;12.84;100.00;163923.03;4991378;28;20046;-61
2022/06/22 04:52:59;;;;;;;12.60;10.07;;;;;;;12.92;100.00;163941.94;4992414;28;20034;-61
2022/06/22 04:55:26;;;;;;;15.35;10.00;;;;;;;13.05;100.00;163975.75;4991074;28;20513;-61
2022/06/22 04:57:56;;;;;;;13.60;11.32;;;;;;;13.18;100.00;164010.88;5022153;28;20029;-61
2022/06/22 05:00:26;;;;;;;11.18;10.07;;;;;;;13.28;100.00;164037.94;5020021;28;20425;-61
2022/06/22 05:02:58;;;;;;;13.95;10.38;;;;;;;13.41;100.00;164070.44;5019775;28;20037;-61
2022/06/22 05:05:27;;;;;;;16.08;9.52;;;;;;;13.55;100.00;164106.97;5020235;28;20209;-61
2022/06/22 05:07:52;;;;;;;;;;;;;;;13.63;100.00;164129.94;5022916;28;20024;-61
2022/06/22 05:10:35;;;;;;;11.63;9.15;;;;;;;13.76;100.00;164162.38;5018999;28;19922;-61
2022/06/22 05:13:10;;;;;;;9.80;8.82;;;;;;;13.85;100.00;164185.41;5018891;28;20045;-61
2022/06/22 05:15:39;;;;;;;15.02;8.48;;;;;;;13.92;100.00;164205.66;5019027;28;20033;-61
2022/06/22 05:18:14;;;;;;;21.98;10.77;;;;;;;14.08;100.00;164247.56;5020728;28;20034;-61
2022/06/22 05:20:51;;;;;;;12.77;11.45;;;;;;;14.24;100.00;164288.16;5017284;28;20100;-61
2022/06/22 05:23:20;;;;;;;13.57;10.95;;;;;;;14.33;100.00;164311.19;5018438;28;20022;-61
2022/06/22 05:25:51;;;;;;;12.52;10.15;;;;;;;14.38;100.00;164326.03;5018935;28;20045;-61
2022/06/22 05:28:26;;;;;;;11.48;9.85;;;;;;;14.52;100.00;164362.59;5018350;28;20017;-61
2022/06/22 05:30:59;;;;;;;11.90;9.98;;;;;;;14.63;100.00;164389.66;5018424;28;20042;-61
2022/06/22 05:33:26;;;;;;;16.15;10.18;;;;;;;14.74;100.00;164420.78;5020337;28;20026;-61
2022/06/22 05:36:03;;;;;;;12.77;7.40;;;;;;;14.77;100.00;164427.59;5020433;28;20042;-61
2022/06/22 05:38:29;;;;;;;6.63;5.82;;;;;;;14.80;100.00;164435.69;5020440;28;20021;-61
2022/06/22 05:40:55;;;;;;;10.55;7.53;;;;;;;14.91;100.00;164465.50;5020108;28;20393;-61
2022/06/22 05:43:24;;;;;;;7.50;6.05;;;;;;;15.01;100.00;164491.19;5020739;28;20022;-61
2022/06/22 05:45:52;;;;;;;;;;;;;;;15.08;100.00;164508.75;5019071;28;20073;-61
2022/06/22 05:48:21;;;;;;;9.07;5.45;;;;;;;15.25;100.00;164552.09;5025133;28;19909;-61
2022/06/22 05:51:01;;;;;;;10.38;6.00;;;;;;;15.34;100.00;164576.47;5029512;28;20041;-61
2022/06/22 05:53:43;;;;;;;11.43;5.32;;;;;;;15.48;100.00;164614.34;5027974;28;20029;-61
2022/06/22 05:56:15;;;;;;;30.38;6.20;;;;;;;15.62;100.00;164649.53;5015829;28;20497;-61
2022/06/22 05:58:53;;;;;;;7.50;5.45;;;;;;;15.73;100.00;164679.38;5017348;28;20033;-61
2022/06/22 06:01:45;;;;;;;4.40;3.83;;;;;;;15.79;100.00;164695.59;5018054;28;20563;-61
2022/06/22 06:04:26;;;;;;;5.55;3.63;;;;;;;15.96;100.00;164739.00;5019310;28;20030;-61
2022/06/22 06:06:59;;;;;;;4.40;3.35;;;;;;;16.08;100.00;164771.47;5018666;28;20126;-61
2022/06/22 06:09:26;;;;;;;9.63;3.30;;;;;;;16.22;100.00;164808.06;5017323;28;20411;-61
2022/06/22 06:12:05;;;;;;;4.07;3.63;;;;;;;16.39;100.00;164852.75;5018489;28;20060;-61
2022/06/22 06:14:34;;;;;;;5.07;3.28;;;;;;;16.54;100.00;164892.00;5011174;28;20834;-61
2022/06/22 06:17:14;;;;;;;9.10;3.17;;;;;;;16.65;100.00;164920.44;5009255;28;20042;-61
2022/06/22 06:19:44;;;;;;;5.32;2.80;;;;;;;16.86;100.00;164976.00;5011075;28;20022;-61
2022/06/22 06:22:11;;;;;;;3.35;2.72;;;;;;;17.04;100.00;165023.47;5009639;28;20061;-61
2022/06/22 06:27:39;;;;;;;5.03;2.88;;;;;;;17.50;100.00;165142.72;5009877;28;20137;-61
2022/06/22 06:30:23;;;;;;;2.92;2.10;;;;;;;17.73;100.00;165203.72;5011675;28;20048;-61
2022/06/22 06:33:04;;;;;;;8.52;2.60;;;;;;;17.96;100.00;165264.78;5010472;28;20026;-61
2022/06/22 06:35:32;;;;;;;3.25;2.60;;;;;;;18.13;100.00;165308.19;5008420;28;20068;-62
2022/06/22 06:38:03;;;;;;;2.70;2.50;;;;;;;18.45;100.00;165392.22;5024216;28;20072;-61
2022/06/22 06:40:40;;;;;;;3.75;1.73;;;;;;;18.85;100.00;165498.00;5019690;28;20037;-62
2022/06/22 06:43:30;;;;;;;5.65;2.22;;;;;;;19.12;100.00;165568.59;5022950;28;20105;-63
2022/06/22 06:45:58;;;;;;;3.47;2.30;;;;;;;19.24;100.00;165601.16;5011876;28;20493;-63
2022/06/22 06:48:26;;;;;;;3.65;2.05;;;;;;;19.26;100.00;165606.56;5005382;28;20493;-63
2022/06/22 06:50:59;;;;;;;7.88;3.20;;;;;;;19.33;100.00;165624.22;5005033;28;20508;-63
2022/06/22 06:53:49;;;;;;;4.38;2.05;;;;;;;19.50;100.00;165670.38;5019798;28;20018;-64
2022/06/22 06:56:39;;;;;;;5.40;3.10;;;;;;;19.65;100.00;165709.69;5008720;28;20176;-61
2022/06/22 06:59:12;;;;;;;2.72;2.25;;;;;;;19.81;100.00;165750.41;5005073;28;20026;-61
2022/06/22 07:01:41;;;;;;;5.57;2.30;;;;;;;19.97;100.00;165793.88;4986890;28;20487;-61
2022/06/22 07:04:15;;;;;;;3.65;2.40;;;;;;;20.10;100.00;165826.44;4983626;28;20382;-61
2022/06/22 07:06:40;;;;;;;6.43;3.35;;;;;;;20.36;100.00;165894.34;4980526;28;20035;-61
2022/06/22 07:09:27;;;;;;;9.32;3.08;;;;;;;20.52;100.00;165937.72;4974733;28;20026;-61
2022/06/22 07:12:00;;;;;;;8.47;2.43;;;;;;;20.32;100.00;165883.44;4973650;28;20122;-58
2022/06/22 07:14:31;;;;;;;3.35;2.65;;;;;;;20.04;100.00;165810.16;4975503;28;20788;-58
2022/06/22 07:17:05;;;;;;;5.07;2.15;;;;;;;20.15;100.00;165838.66;4973135;28;20042;-58
2022/06/22 07:19:38;;;;;;;2.25;1.90;;;;;;;20.39;100.00;165902.44;4975240;28;20463;-58
2022/06/22 07:22:15;;;;;;;5.57;2.17;;;;;;;20.39;100.00;165902.44;4973511;28;20046;-58
2022/06/22 07:24:48;;;;;;;7.00;2.85;;;;;;;20.76;100.00;166001.63;4978739;28;20078;-58
2022/06/22 07:27:39;;;;;;;2.20;1.92;;;;;;;20.57;100.00;165951.34;4993024;28;20050;-58
2022/06/22 07:30:15;;;;;;;8.40;2.72;;;;;;;20.66;100.00;165973.06;4992465;28;20061;-58
2022/06/22 07:32:52;;;;;;;10.98;3.17;;;;;;;20.98;100.00;166058.66;4994265;28;20022;-58
2022/06/22 07:35:36;;;;;;;4.25;2.67;;;;;;;21.28;100.00;166137.41;4988420;28;20050;-58
2022/06/22 07:38:07;;;;;;;5.45;3.42;;;;;;;21.43;100.00;166176.78;4974384;28;20293;-58
2022/06/22 07:40:34;;;;;;;7.70;3.60;;;;;;;21.10;100.00;166089.88;4972493;28;20047;-58
2022/06/22 07:43:00;;;;;;;4.65;2.05;;;;;;;21.08;100.00;166085.78;4974310;28;20078;-58
2022/06/22 07:45:27;;;;;;;7.05;3.50;;;;;;;20.87;100.00;166030.13;4972974;28;20047;-58
2022/06/22 07:48:01;;;;;;;3.47;2.75;;;;;;;20.81;100.00;166013.84;4980141;28;20085;-58
2022/06/22 07:50:32;;;;;;;8.20;2.53;;;;;;;20.99;100.00;166059.97;4984752;28;20400;-58
2022/06/22 07:53:06;;;;;;;3.88;3.15;;;;;;;21.08;100.00;166084.44;4974577;28;20023;-58
2022/06/22 07:55:58;;;;;;;8.77;2.88;;;;;;;21.02;100.00;166068.16;4979472;28;20422;-58
2022/06/22 07:58:30;;;;;;;5.88;2.60;;;;;;;21.52;100.00;166199.91;4993867;28;20033;-58
2022/06/22 08:01:04;;;;;;;5.32;2.83;;;;;;;21.89;100.00;166296.34;4991870;28;20498;-58
2022/06/22 08:03:49;;;;;;;7.15;2.65;;;;;;;22.13;100.00;166361.59;4993784;28;20026;-58
2022/06/22 08:06:29;;;;;;;9.63;2.65;;;;;;;22.09;100.00;166350.69;4992460;28;20409;-58
2022/06/22 08:09:01;;;;;;;5.18;2.40;;;;;;;22.02;100.00;166331.66;4993224;28;20022;-58
2022/06/22 08:11:46;;;;;;;6.80;3.25;;;;;;;21.64;100.00;166231.13;4992237;28;20121;-58
2022/06/22 08:14:38;;;;;;;8.48;3.22;;;;;;;21.93;100.00;166307.25;4993061;28;20034;-58
2022/06/22 08:17:10;;;;;;;4.93;2.40;;;;;;;22.13;100.00;166361.59;4990743;28;20046;-58
2022/06/22 08:19:36;;;;;;;6.53;2.35;;;;;;;22.78;100.00;166531.50;4993668;28;20026;-58
2022/06/22 08:22:04;;;;;;;5.00;2.30;;;;;;;23.20;100.00;166643.00;4991550;28;20541;-58
2022/06/22 08:24:37;;;;;;;7.57;2.97;;;;;;;22.65;100.00;166498.84;4993384;28;20038;-58
2022/06/22 08:27:03;;;;;;;7.10;2.90;;;;;;;22.44;100.00;166443.16;4991646;28;20518;-58
2022/06/22 08:29:31;;;;;;;5.70;2.80;;;;;;;23.06;100.00;166604.88;4992637;28;20085;-58
2022/06/22 08:31:59;;;;;;;;;;;;;;;23.09;100.00;166613.00;4992222;28;20501;-58
2022/06/22 08:34:36;;;;;;;;;;;;;;;23.31;100.00;166671.53;4994096;28;19996;-58
2022/06/22 08:37:12;;;;;;;8.32;2.35;;;;;;;23.58;100.00;166742.22;4991148;28;20285;-58
2022/06/22 08:39:44;;;;;;;9.60;3.25;;;;;;;23.74;100.00;166785.72;4994247;28;20053;-58
2022/06/22 08:42:30;;;;;;;6.47;2.60;;;;;;;23.99;100.00;166851.06;4991534;28;20117;-58
2022/06/22 08:45:22;;;;;;;5.18;2.15;;;;;;;24.12;100.00;166883.69;5001048;28;20037;-57
2022/06/22 08:48:05;;;;;;;5.40;2.75;;;;;;;23.77;100.00;166793.91;4993292;28;20046;-58
2022/06/22 08:50:52;;;;;;;6.00;2.45;;;;;;;23.56;100.00;166736.81;4990390;28;20042;-58
2022/06/22 08:53:55;;;;;;;5.55;2.53;;;;;;;24.20;100.00;166905.44;4972709;28;20034;-58
2022/06/22 08:56:31;;;;;;;4.60;1.95;;;;;;;23.97;96.41;166844.28;4984936;28;20057;-59
2022/06/22 08:59:23;;;;;;;7.32;2.10;;;;;;;24.34;97.13;166943.53;4980920;28;20022;-58
2022/06/22 09:02:30;;;;;;;5.20;2.45;;;;;;;24.56;90.04;167000.66;4971876;28;20050;-58
2022/06/22 09:05:16;;;;;;;3.78;2.53;;;;;;;25.00;90.04;167116.34;4979383;28;20505;-58
2022/06/22 09:07:53;;;;;;;4.47;2.67;;;;;;;25.52;89.21;167253.81;4990143;28;20038;-58
2022/06/22 09:10:37;;;;;;;2.20;1.43;;;;;;;25.85;82.87;167339.53;4972505;28;20050;-59
2022/06/22 09:13:22;;;;;;;11.07;2.92;;;;;;;26.08;81.58;167400.88;4976328;28;20109;-58
2022/06/22 09:16:11;;;;;;;7.97;2.28;;;;;;;26.40;80.21;167486.63;4972611;28;20073;-57
2022/06/22 09:19:14;;;;;;;6.70;3.40;;;;;;;26.82;78.22;167595.59;4978011;28;20019;-57
2022/06/22 09:22:09;;;;;;;5.45;2.38;;;;;;;25.80;69.38;167327.34;4970199;28;20081;-58
2022/06/22 09:25:08;;;;;;;5.32;2.17;;;;;;;25.44;72.77;167233.41;4989430;28;20030;-58
2022/06/22 09:27:42;;;;;;;2.88;2.53;;;;;;;25.08;74.33;167136.75;5009390;28;20076;-58
2022/06/22 09:30:32;;;;;;;5.85;2.88;;;;;;;25.69;77.63;167298.72;5009662;28;20076;-58
2022/06/22 09:33:32;;;;;;;8.15;2.53;;;;;;;25.74;72.50;167310.97;5011398;28;20026;-58
2022/06/22 09:36:25;;;;;;;3.30;1.80;;;;;;;25.97;67.09;167373.59;4988861;28;20054;-58
2022/06/22 09:39:17;;;;;;;4.20;2.58;;;;;;;26.18;71.14;167428.06;4972283;28;20118;-58
2022/06/22 09:42:00;;;;;;;8.02;3.25;;;;;;;26.49;70.16;167509.75;4971066;28;20042;-58
2022/06/22 09:45:17;;;;;;;3.38;1.92;;;;;;;26.18;70.87;167428.06;4972136;28;20090;-58
2022/06/22 09:48:08;;;;;;;4.95;1.92;;;;;;;25.19;71.16;167166.69;4970097;28;20075;-58
2022/06/22 09:51:01;;;;;;;4.43;1.75;;;;;;;25.19;71.87;167168.03;4970653;28;20070;-58
2022/06/22 09:53:26;;;;;;;3.25;2.17;;;;;;;24.14;71.35;166889.13;4972670;28;20031;-58
2022/06/22 09:56:19;;;;;;;5.15;2.70;;;;;;;24.31;73.37;166935.34;4970800;28;20150;-58
2022/06/22 09:59:09;;;;;;;4.93;2.08;;;;;;;24.45;70.13;166970.75;4971982;28;20027;-58
2022/06/22 10:02:00;;;;;;;4.43;2.00;;;;;;;24.42;72.14;166963.97;4970973;28;20053;-58
2022/06/22 10:04:53;;;;;;;6.70;2.40;;;;;;;24.93;70.65;167098.66;4971723;28;20073;-58
2022/06/22 10:07:49;;;;;;;1.88;1.30;;;;;;;24.81;70.27;167066.00;4970774;28;20411;-58
2022/06/22 10:10:28;;;;;;;14.50;2.60;;;;;;;24.20;70.33;166906.78;4970573;28;20042;-58
2022/06/22 10:13:03;;;;;;;3.10;2.15;;;;;;;23.98;69.67;166848.34;4970319;28;20027;-58
2022/06/22 10:15:28;;;;;;;5.65;2.50;;;;;;;23.85;68.22;166812.94;4971120;28;20118;-58
2022/06/22 10:18:10;;;;;;;4.32;1.98;;;;;;;24.07;68.46;166872.84;4972056;28;20179;-58
2022/06/22 10:20:45;;;;;;;4.25;1.75;;;;;;;24.54;68.24;166995.19;4970528;28;20122;-58
2022/06/22 10:23:16;;;;;;;8.02;2.67;;;;;;;24.62;65.62;167016.97;4972236;28;20043;-58
2022/06/22 10:26:12;;;;;;;4.65;1.85;;;;;;;24.37;63.69;166951.72;4970874;28;20054;-58
2022/06/22 10:28:56;;;;;;;6.20;2.55;;;;;;;24.26;65.23;166921.75;4971797;28;20038;-58
2022/06/22 10:31:34;;;;;;;2.55;1.63;;;;;;;24.44;66.96;166968.03;4970744;28;20074;-58
2022/06/22 10:34:11;;;;;;;2.75;2.20;;;;;;;24.27;65.32;166924.50;4970761;28;20121;-58
2022/06/22 10:36:48;;;;;;;4.10;1.73;;;;;;;24.22;64.91;166910.91;4970594;28;20502;-58
2022/06/22 10:39:25;;;;;;;2.37;1.60;;;;;;;24.56;61.42;167000.66;4971806;28;20492;-58
2022/06/22 10:45:39;;;;;;;4.25;1.55;;;;;;;25.59;63.11;167272.88;4970629;28;20045;-58
2022/06/22 10:48:25;;;;;;;3.58;2.60;;;;;;;25.45;64.13;167234.75;4971931;28;20532;-58
2022/06/22 10:51:20;;;;;;;5.50;2.22;;;;;;;25.05;65.08;167128.59;4969865;28;20502;-58
2022/06/22 10:54:14;;;;;;;2.33;2.05;;;;;;;25.02;64.11;167123.16;4972095;28;20139;-58
2022/06/22 10:57:05;;;;;;;3.95;1.63;;;;;;;25.37;64.45;167212.94;4970643;28;20043;-59
2022/06/22 11:00:14;;;;;;;2.53;1.80;;;;;;;24.91;65.31;167093.19;4972084;28;20022;-59
2022/06/22 11:03:09;;;;;;;5.25;2.45;;;;;;;25.17;63.98;167161.25;4989942;28;20039;-58
2022/06/22 11:05:49;;;;;;;3.45;2.22;;;;;;;25.13;64.60;167150.38;4989748;28;20038;-58
2022/06/22 11:08:40;;;;;;;2.95;1.77;;;;;;;25.23;63.31;167176.22;4990872;28;20037;-58
2022/06/22 11:11:40;;;;;;;4.55;1.85;;;;;;;25.10;62.68;167142.19;4978439;28;20498;-58
2022/06/22 11:14:30;;;;;;;4.65;2.47;;;;;;;25.53;64.35;167256.53;4971335;28;20066;-58
2022/06/22 11:17:11;;;;;;;9.13;2.17;;;;;;;25.84;64.34;167338.22;4972025;28;20043;-58
2022/06/22 11:20:10;;;;;;;6.03;2.67;;;;;;;26.28;61.39;167455.31;4975017;28;20030;-58
2022/06/22 11:22:40;;;;;;;5.80;2.20;;;;;;;25.89;59.93;167351.81;4993223;28;20041;-58
2022/06/22 11:30:48;;;;;;;4.63;2.38;;;;;;;25.70;58.96;167300.09;4992759;28;20058;-59
2022/06/22 11:31:40;;;;;;;4.25;2.10;;;;;;;25.30;59.20;167196.59;4986539;28;20529;-58
2022/06/22 11:34:36;;;;;;;4.13;2.10;;;;;;;25.56;61.16;167264.72;4980416;28;20033;-58
2022/06/22 11:37:38;;;;;;;4.60;1.73;;;;;;;26.12;59.74;167411.75;4992402;28;20068;-58
2022/06/22 11:40:23;;;;;;;5.97;3.22;;;;;;;25.92;59.12;167360.00;4993028;28;20042;-58
2022/06/22 11:43:00;;;;;;;3.70;2.10;;;;;;;25.61;59.43;167278.31;4992298;28;20041;-58
2022/06/22 11:45:58;;;;;;;4.47;2.33;;;;;;;25.40;58.82;167221.16;4992358;28;20482;-58
2022/06/22 11:48:37;;;;;;;4.30;2.33;;;;;;;25.40;60.34;167221.16;4993916;28;20461;-58
2022/06/22 11:51:34;;;;;;;7.47;2.13;;;;;;;25.85;59.81;167339.53;4991954;28;20038;-58
2022/06/22 11:54:47;;;;;;;7.53;1.92;;;;;;;25.88;57.94;167349.06;4982628;28;20034;-58
2022/06/22 11:57:54;;;;;;;3.35;1.73;;;;;;;26.56;59.30;167528.81;4991212;28;20125;-58
2022/06/22 12:00:28;;;;;;;3.55;3.08;;;;;;;26.82;58.77;167596.97;4991589;28;20046;-58
2022/06/22 12:03:26;;;;;;;6.18;2.78;;;;;;;26.54;58.65;167523.41;4992344;28;20022;-58
2022/06/22 12:06:09;;;;;;;6.38;2.03;;;;;;;26.69;59.78;167561.53;4991672;28;20518;-58
2022/06/22 12:09:02;;;;;;;3.78;1.55;;;;;;;26.79;59.17;167588.78;4993973;28;20054;-58
2022/06/22 12:11:56;;;;;;;9.90;2.17;;;;;;;26.90;57.76;167618.78;4992064;28;20327;-58
2022/06/22 12:17:45;;;;;;;6.40;2.08;;;;;;;25.93;54.69;167362.72;5011802;28;20091;-58
2022/06/22 12:20:19;;;;;;;4.35;1.27;;;;;;;26.16;56.97;167421.28;5011273;28;20070;-58
2022/06/22 12:22:50;;;;;;;4.90;1.63;;;;;;;25.90;57.25;167354.53;5013192;28;20044;-58
2022/06/22 12:25:31;;;;;;;3.20;1.67;;;;;;;25.94;55.67;167365.44;5007175;28;20525;-58